Terminal Aerodrome Forecast
Issued by NWS Newport/Morehead City, NC

Home | Current Version | Previous Version | Graphics & Text | Print | Product List | Glossary On
Versions: 1 2 3 4 5 6 7 8 9 10 11 12 13 14 15 16 17 18 19 20 21 22 23 24
735
FTUS42 KMHX 231733
TAFEWN
TAF
KEWN 231733Z 2318/2418 VRB05KT P6SM SCT040
     FM240700 21003KT 5SM BR SCT050
     FM240900 22003KT 2SM BR BKN008
     FM241300 24007KT 5SM BR BKN030
     FM241400 23008KT P6SM SCT050=

USA.gov is the U.S. government's official web portal to all federal, state and local government web resources and services.